createdAt,value
2018-12-21T00:01:28.272Z,19.17
2018-12-21T00:03:56.236Z,20.47
2018-12-21T00:06:24.199Z,21.10
2018-12-21T00:08:52.309Z,19.43
2018-12-21T00:11:20.272Z,18.70
2018-12-21T00:13:48.216Z,19.37
2018-12-21T00:16:16.273Z,20.70
2018-12-21T00:18:44.271Z,19.27
2018-12-21T00:21:12.228Z,19.37
2018-12-21T00:23:40.294Z,19.63
2018-12-21T00:26:08.345Z,18.43
2018-12-21T00:28:36.313Z,19.23
2018-12-21T00:31:09.844Z,20.00
2018-12-21T00:33:43.580Z,20.07
2018-12-21T00:36:17.265Z,20.80
2018-12-21T00:38:51.138Z,20.93
2018-12-21T00:41:18.744Z,21.20
2018-12-21T00:43:48.695Z,21.83
2018-12-21T00:46:18.224Z,20.97
2018-12-21T00:48:46.224Z,22.13
2018-12-21T00:51:14.281Z,21.60
2018-12-21T00:53:42.279Z,20.97
2018-12-21T00:56:10.348Z,20.37
2018-12-21T00:58:38.273Z,21.87
2018-12-21T01:01:06.340Z,22.43
2018-12-21T01:03:34.472Z,21.63
2018-12-21T01:06:02.440Z,21.33
2018-12-21T01:08:30.387Z,20.60
2018-12-21T01:10:58.446Z,20.63
2018-12-21T01:13:26.414Z,22.80
2018-12-21T01:15:54.586Z,22.10
2018-12-21T01:18:22.659Z,20.50
2018-12-21T01:20:50.680Z,22.20
2018-12-21T01:23:18.701Z,21.87
2018-12-21T01:25:46.696Z,21.63
2018-12-21T01:28:14.664Z,22.00
2018-12-21T01:30:42.728Z,22.10
2018-12-21T01:33:10.825Z,21.77
2018-12-21T01:35:38.784Z,22.43
2018-12-21T01:38:06.724Z,21.33
2018-12-21T01:40:34.770Z,21.33
2018-12-21T01:43:02.785Z,21.73
2018-12-21T01:45:30.768Z,21.27
2018-12-21T01:47:58.826Z,21.27
2018-12-21T01:50:26.943Z,21.07
2018-12-21T01:52:54.914Z,20.97
2018-12-21T01:55:22.875Z,20.53
2018-12-21T01:57:50.916Z,21.83
2018-12-21T02:00:18.908Z,20.03
2018-12-21T02:02:46.872Z,20.80
2018-12-21T02:05:14.844Z,19.77
2018-12-21T02:07:42.808Z,21.47
2018-12-21T02:10:10.810Z,19.77
2018-12-21T02:12:38.880Z,20.73
2018-12-21T02:15:06.875Z,20.10
2018-12-21T02:17:34.855Z,20.83
2018-12-21T02:20:02.941Z,19.70
2018-12-21T02:22:30.992Z,20.47
2018-12-21T02:24:58.961Z,20.33
2018-12-21T02:27:26.922Z,19.77
2018-12-21T02:29:55.000Z,20.10
2018-12-21T02:32:23.014Z,19.40
2018-12-21T02:34:51.026Z,19.30
2018-12-21T02:37:18.994Z,20.23
2018-12-21T02:39:46.961Z,19.90
2018-12-21T02:42:14.938Z,19.17
2018-12-21T02:44:43.041Z,20.87
2018-12-21T02:47:11.004Z,19.97
2018-12-21T02:49:38.963Z,19.43
2018-12-21T02:52:06.942Z,18.50
2018-12-21T02:54:34.931Z,19.87
2018-12-21T02:57:02.960Z,19.77
2018-12-21T02:59:30.933Z,19.23
2018-12-21T03:01:58.896Z,19.73
2018-12-21T03:04:26.876Z,19.17
2018-12-21T03:06:54.839Z,20.17
2018-12-21T03:09:22.804Z,20.00
2018-12-21T03:11:50.829Z,19.97
2018-12-21T03:14:18.852Z,20.50
2018-12-21T03:16:46.812Z,19.40
2018-12-21T03:19:14.865Z,19.27
2018-12-21T03:21:42.812Z,20.00
2018-12-21T03:24:10.869Z,20.70
2018-12-21T03:26:38.961Z,19.40
2018-12-21T03:29:06.903Z,18.50
2018-12-21T03:31:34.946Z,19.00
2018-12-21T03:34:03.062Z,22.77
2018-12-21T03:36:31.307Z,21.23
2018-12-21T03:38:59.329Z,19.63
2018-12-21T03:41:27.415Z,21.13
2018-12-21T03:43:55.382Z,21.70
2018-12-21T03:46:23.361Z,20.57
2018-12-21T03:48:51.332Z,20.23
2018-12-21T03:51:19.268Z,19.50
2018-12-21T03:53:47.227Z,20.50
2018-12-21T03:56:15.187Z,20.80
2018-12-21T03:58:43.180Z,18.90
2018-12-21T04:01:11.145Z,20.60
2018-12-21T04:03:39.166Z,20.10
2018-12-21T04:06:07.123Z,19.97
2018-12-21T04:08:35.064Z,19.17
2018-12-21T04:11:03.020Z,17.97
2018-12-21T04:13:30.987Z,18.30
2018-12-21T04:15:58.946Z,17.73
2018-12-21T04:18:26.906Z,18.30
2018-12-21T04:20:54.947Z,18.10
2018-12-21T04:23:22.954Z,16.63
2018-12-21T04:25:50.976Z,16.70
2018-12-21T04:28:18.948Z,16.30
2018-12-21T04:30:46.915Z,16.60
2018-12-21T04:33:14.870Z,17.63
2018-12-21T04:35:42.880Z,15.87
2018-12-21T04:38:10.963Z,16.63
2018-12-21T04:40:38.945Z,15.03
2018-12-21T04:43:06.896Z,15.23
2018-12-21T04:45:34.953Z,15.00
2018-12-21T04:48:02.927Z,16.40
2018-12-21T04:50:30.881Z,14.57
2018-12-21T04:52:58.973Z,15.73
2018-12-21T04:55:26.988Z,14.93
2018-12-21T04:57:54.945Z,16.13
2018-12-21T05:00:23.015Z,15.50
2018-12-21T05:02:50.972Z,15.27
2018-12-21T05:05:18.963Z,15.23
2018-12-21T05:07:47.004Z,14.40
2018-12-21T05:10:14.965Z,15.13
2018-12-21T05:12:42.931Z,14.00
2018-12-21T05:15:10.885Z,13.60
2018-12-21T05:17:38.988Z,14.87
2018-12-21T05:20:06.988Z,12.63
2018-12-21T05:22:35.051Z,12.10
2018-12-21T05:25:03.113Z,12.40
2018-12-21T05:27:31.089Z,10.97
2018-12-21T05:29:59.045Z,12.03
2018-12-21T05:32:27.098Z,11.80
2018-12-21T05:34:55.122Z,12.57
2018-12-21T05:37:23.169Z,11.90
2018-12-21T05:39:51.132Z,11.20
2018-12-21T05:42:19.104Z,13.07
2018-12-21T05:44:47.068Z,12.23
2018-12-21T05:47:15.039Z,12.93
2018-12-21T05:49:42.992Z,13.60
2018-12-21T05:52:10.969Z,16.30
2018-12-21T05:54:38.932Z,15.67
2018-12-21T05:57:06.891Z,17.93
2018-12-21T05:59:34.870Z,14.53
2018-12-21T06:02:02.961Z,13.40
2018-12-21T06:04:31.084Z,14.20
2018-12-21T06:06:59.045Z,13.97
2018-12-21T06:09:27.000Z,13.33
2018-12-21T06:11:55.014Z,13.80
2018-12-21T06:14:23.056Z,12.50
2018-12-21T06:16:51.023Z,13.20
2018-12-21T06:19:18.984Z,14.17
2018-12-21T06:21:46.958Z,12.67
2018-12-21T06:24:14.930Z,13.60
2018-12-21T06:26:42.879Z,12.87
2018-12-21T06:29:10.877Z,13.30
2018-12-21T06:31:38.843Z,19.73
2018-12-21T06:34:06.853Z,17.27
2018-12-21T06:36:34.891Z,12.73
2018-12-21T06:39:04.631Z,10.73
2018-12-21T06:41:32.593Z,10.53
2018-12-21T06:44:00.552Z,11.70
2018-12-21T06:46:28.489Z,11.43
2018-12-21T06:48:56.538Z,11.53
2018-12-21T06:51:24.497Z,11.37
2018-12-21T06:53:52.467Z,13.23
2018-12-21T06:56:20.425Z,17.73
2018-12-21T06:58:48.472Z,16.07
2018-12-21T07:01:16.424Z,18.93
2018-12-21T07:03:44.389Z,12.90
2018-12-21T07:06:12.460Z,13.97
2018-12-21T07:08:40.412Z,15.00
2018-12-21T07:11:13.294Z,14.33
2018-12-21T07:13:41.341Z,12.17
2018-12-21T07:16:09.309Z,13.30
2018-12-21T07:18:37.311Z,13.03
2018-12-21T07:21:14.612Z,13.17
2018-12-21T07:23:45.305Z,11.87
2018-12-21T07:26:14.385Z,11.83
2018-12-21T07:28:42.436Z,11.10
2018-12-21T07:31:10.405Z,14.47
2018-12-21T07:33:38.362Z,11.03
2018-12-21T07:36:08.584Z,11.13
2018-12-21T07:38:36.216Z,16.60
2018-12-21T07:41:04.193Z,11.20
2018-12-21T07:43:32.180Z,9.87
2018-12-21T07:46:00.228Z,11.50
2018-12-21T07:48:28.196Z,10.43
2018-12-21T07:50:56.163Z,11.53
2018-12-21T07:53:24.309Z,15.77
2018-12-21T07:55:52.270Z,12.27
2018-12-21T07:58:20.212Z,10.60
2018-12-21T08:00:48.256Z,9.23
2018-12-21T08:03:16.230Z,11.10
2018-12-21T08:05:44.257Z,10.53
2018-12-21T08:08:12.309Z,9.10
2018-12-21T08:10:40.364Z,10.17
2018-12-21T08:13:08.331Z,11.93
2018-12-21T08:15:36.311Z,11.77
2018-12-21T08:18:04.360Z,10.80
2018-12-21T08:20:32.311Z,12.17
2018-12-21T08:23:00.275Z,12.07
2018-12-21T08:25:28.240Z,12.10
2018-12-21T08:27:56.201Z,12.67
2018-12-21T08:30:24.177Z,11.03
2018-12-21T08:32:52.227Z,15.60
2018-12-21T08:35:20.190Z,19.80
2018-12-21T08:37:48.156Z,13.77
2018-12-21T08:40:16.106Z,14.67
2018-12-21T08:42:44.058Z,9.83
2018-12-21T08:45:12.016Z,10.20
2018-12-21T08:47:39.970Z,10.87
2018-12-21T08:50:08.069Z,10.27
2018-12-21T08:52:36.020Z,9.77
2018-12-21T08:55:04.769Z,9.20
2018-12-21T08:57:32.733Z,9.97
2018-12-21T09:00:00.700Z,10.13
2018-12-21T09:02:28.703Z,9.80
2018-12-21T09:04:56.664Z,11.23
2018-12-21T09:07:24.628Z,12.83
2018-12-21T09:09:52.608Z,11.27
2018-12-21T09:12:20.554Z,12.10
2018-12-21T09:14:48.529Z,13.07
2018-12-21T09:17:16.498Z,12.13
2018-12-21T09:19:44.548Z,12.50
2018-12-21T09:22:12.504Z,11.53
2018-12-21T09:24:40.467Z,11.77
2018-12-21T09:27:08.462Z,11.60
2018-12-21T09:29:36.507Z,10.67
2018-12-21T09:32:05.120Z,9.87
2018-12-21T09:34:33.504Z,10.50
2018-12-21T09:37:01.473Z,10.60
2018-12-21T09:39:29.496Z,9.37
2018-12-21T09:42:08.293Z,9.00
2018-12-21T09:44:59.846Z,8.73
2018-12-21T09:47:31.112Z,8.90
2018-12-21T09:50:00.251Z,8.27
2018-12-21T09:52:30.861Z,8.63
2018-12-21T09:54:59.704Z,7.87
2018-12-21T09:57:27.732Z,8.43
2018-12-21T09:59:55.763Z,7.93
2018-12-21T10:02:23.732Z,7.53
2018-12-21T10:04:51.708Z,7.83
2018-12-21T10:07:27.407Z,7.40
2018-12-21T10:09:49.633Z,9.07
2018-12-21T10:12:17.609Z,7.87
2018-12-21T10:14:45.572Z,7.77
2018-12-21T10:17:13.582Z,7.33
2018-12-21T10:19:41.545Z,7.30
2018-12-21T10:22:09.504Z,7.07
2018-12-21T10:24:37.532Z,6.53
2018-12-21T10:27:05.429Z,6.57
2018-12-21T10:29:33.390Z,7.07
2018-12-21T10:32:01.560Z,7.40
2018-12-21T10:34:29.577Z,6.20
2018-12-21T10:36:57.520Z,6.47
2018-12-21T10:39:25.488Z,6.87
2018-12-21T10:42:10.248Z,6.70
2018-12-21T10:44:39.448Z,7.07
2018-12-21T10:47:16.227Z,6.20
2018-12-21T10:49:44.198Z,5.93
2018-12-21T10:52:12.774Z,5.90
2018-12-21T10:54:40.694Z,6.60
2018-12-21T10:57:08.785Z,7.63
2018-12-21T10:59:43.355Z,6.73
2018-12-21T11:02:06.748Z,5.87
2018-12-21T11:04:34.769Z,6.47
2018-12-21T11:07:02.866Z,5.67
2018-12-21T11:09:30.943Z,5.70
2018-12-21T11:11:59.013Z,4.87
2018-12-21T11:14:27.063Z,6.07
2018-12-21T11:16:55.122Z,5.70
2018-12-21T11:19:23.169Z,5.40
2018-12-21T11:21:51.126Z,5.60
2018-12-21T11:24:19.168Z,5.27
2018-12-21T11:26:47.227Z,4.93
2018-12-21T11:29:15.230Z,4.87
2018-12-21T11:31:48.173Z,4.90
2018-12-21T11:34:16.148Z,4.90
2018-12-21T11:36:44.190Z,4.70
2018-12-21T11:39:12.177Z,4.40
2018-12-21T11:41:40.254Z,4.90
2018-12-21T11:44:08.345Z,5.20
2018-12-21T11:46:36.295Z,4.87
2018-12-21T11:49:04.236Z,5.07
2018-12-21T11:51:32.188Z,4.90
2018-12-21T11:54:00.190Z,6.07
2018-12-21T11:56:28.187Z,5.37
2018-12-21T11:58:56.237Z,5.50
2018-12-21T12:01:24.331Z,4.90
2018-12-21T12:03:52.385Z,4.90
2018-12-21T12:06:20.436Z,5.33
2018-12-21T12:08:48.406Z,5.60
2018-12-21T12:11:16.457Z,5.03
2018-12-21T12:13:44.577Z,5.33
2018-12-21T12:16:12.657Z,5.60
2018-12-21T12:18:40.748Z,5.17
2018-12-21T12:21:08.804Z,5.40
2018-12-21T12:23:36.804Z,4.90
2018-12-21T12:26:04.857Z,5.20
2018-12-21T12:28:32.808Z,5.03
2018-12-21T12:31:00.866Z,5.23
2018-12-21T12:33:28.938Z,5.13
2018-12-21T12:35:56.984Z,4.90
2018-12-21T12:38:25.056Z,5.10
2018-12-21T12:40:53.117Z,5.47
2018-12-21T12:43:21.150Z,5.43
2018-12-21T12:45:49.091Z,6.00
2018-12-21T12:48:17.174Z,5.50
2018-12-21T12:50:45.133Z,5.93
2018-12-21T12:53:13.191Z,6.47
2018-12-21T12:55:41.174Z,4.97
2018-12-21T12:58:09.216Z,6.03
2018-12-21T13:00:38.948Z,5.40
2018-12-21T13:03:06.989Z,5.83
2018-12-21T13:05:34.963Z,5.53
2018-12-21T13:08:03.147Z,5.80
2018-12-21T13:10:34.869Z,5.50
2018-12-21T13:13:05.895Z,5.80
2018-12-21T13:15:37.960Z,5.00
2018-12-21T13:18:07.506Z,5.60
2018-12-21T13:20:38.276Z,6.00
2018-12-21T13:23:07.029Z,6.37
2018-12-21T13:25:35.073Z,6.00
2018-12-21T13:28:06.315Z,6.47
2018-12-21T13:30:35.015Z,6.90
2018-12-21T13:33:03.104Z,5.80
2018-12-21T13:35:31.071Z,6.23
2018-12-21T13:37:59.101Z,5.90
2018-12-21T13:40:27.070Z,6.33
2018-12-21T13:42:55.131Z,6.50
2018-12-21T13:45:23.187Z,6.90
2018-12-21T13:47:51.232Z,7.40
2018-12-21T13:50:19.236Z,6.17
2018-12-21T13:52:47.332Z,7.37
2018-12-21T13:55:20.254Z,7.60
2018-12-21T13:57:45.251Z,6.87
2018-12-21T14:00:13.376Z,6.00
2018-12-21T14:02:41.428Z,6.00
2018-12-21T14:05:09.390Z,5.97
2018-12-21T14:07:37.337Z,5.97
2018-12-21T14:10:07.318Z,5.97
2018-12-21T14:12:35.283Z,5.63
2018-12-21T14:15:03.366Z,5.83
2018-12-21T14:17:31.371Z,5.90
2018-12-21T14:19:59.399Z,5.87
2018-12-21T14:22:27.357Z,6.20
2018-12-21T14:24:55.349Z,5.03
2018-12-21T14:27:23.292Z,6.40
2018-12-21T14:29:51.257Z,5.50
2018-12-21T14:32:19.244Z,5.30
2018-12-21T14:34:47.196Z,5.40
2018-12-21T14:37:15.236Z,4.97
2018-12-21T14:39:43.290Z,4.10
2018-12-21T14:42:11.322Z,4.50
2018-12-21T14:44:39.384Z,5.20
2018-12-21T14:47:07.565Z,5.10
2018-12-21T14:49:35.598Z,5.33
2018-12-21T14:52:04.129Z,5.93
2018-12-21T14:54:32.245Z,5.73
2018-12-21T14:57:00.241Z,5.60
2018-12-21T14:59:28.338Z,5.43
2018-12-21T15:01:56.299Z,5.90
2018-12-21T15:04:24.330Z,5.33
2018-12-21T15:06:52.441Z,5.07
2018-12-21T15:09:20.704Z,5.67
2018-12-21T15:11:48.709Z,5.33
2018-12-21T15:14:16.693Z,6.00
2018-12-21T15:16:44.631Z,5.67
2018-12-21T15:19:12.707Z,6.50
2018-12-21T15:21:40.787Z,6.23
2018-12-21T15:24:08.764Z,5.73
2018-12-21T15:26:36.722Z,6.23
2018-12-21T15:29:04.737Z,5.80
2018-12-21T15:31:32.776Z,6.57
2018-12-21T15:34:00.761Z,5.80
2018-12-21T15:36:28.770Z,6.37
2018-12-21T15:38:56.825Z,8.50
2018-12-21T15:41:24.791Z,7.00
2018-12-21T15:43:52.824Z,6.87
2018-12-21T15:46:20.864Z,7.70
2018-12-21T15:48:48.824Z,6.67
2018-12-21T15:51:16.809Z,6.57
2018-12-21T15:53:44.848Z,7.43
2018-12-21T15:56:12.896Z,6.20
2018-12-21T15:58:40.969Z,6.47
2018-12-21T16:01:09.024Z,7.67
2018-12-21T16:03:37.020Z,7.67
2018-12-21T16:06:04.987Z,7.30
2018-12-21T16:08:32.935Z,6.00
2018-12-21T16:11:00.925Z,6.77
2018-12-21T16:13:28.964Z,6.17
2018-12-21T16:15:56.926Z,5.70
2018-12-21T16:18:24.872Z,5.63
2018-12-21T16:20:52.923Z,5.40
2018-12-21T16:23:20.879Z,6.20
2018-12-21T16:25:48.890Z,6.00
2018-12-21T16:28:17.005Z,5.67
2018-12-21T16:30:45.083Z,4.90
2018-12-21T16:33:13.033Z,4.30
2018-12-21T16:35:40.993Z,5.60
2018-12-21T16:38:08.984Z,5.37
2018-12-21T16:40:36.926Z,3.90
2018-12-21T16:43:04.878Z,3.53
2018-12-21T16:45:32.945Z,4.30
2018-12-21T16:48:00.889Z,3.80
2018-12-21T16:50:28.965Z,5.30
2018-12-21T16:52:56.926Z,3.70
2018-12-21T16:55:24.997Z,3.77
2018-12-21T16:57:53.073Z,4.10
2018-12-21T17:00:21.268Z,3.43
2018-12-21T17:02:49.261Z,3.63
2018-12-21T17:05:17.250Z,3.90
2018-12-21T17:07:45.309Z,3.70
2018-12-21T17:10:13.345Z,4.00
2018-12-21T17:12:46.323Z,4.63
2018-12-21T17:15:14.365Z,3.87
2018-12-21T17:17:42.409Z,3.20
2018-12-21T17:20:10.449Z,3.67
2018-12-21T17:22:38.484Z,3.53
2018-12-21T17:25:07.608Z,3.27
2018-12-21T17:27:35.652Z,3.50
2018-12-21T17:30:04.849Z,4.10
2018-12-21T17:32:32.801Z,4.40
2018-12-21T17:35:00.895Z,4.03
2018-12-21T17:37:28.929Z,4.57
2018-12-21T17:39:56.872Z,5.27
2018-12-21T17:42:24.814Z,6.17
2018-12-21T17:44:52.863Z,6.13
2018-12-21T17:47:20.945Z,8.30
2018-12-21T17:49:49.020Z,8.90
2018-12-21T17:52:16.934Z,8.00
2018-12-21T17:54:44.901Z,9.37
2018-12-21T17:57:12.920Z,7.30
2018-12-21T17:59:40.959Z,8.67
2018-12-21T18:02:09.037Z,8.53
2018-12-21T18:04:37.096Z,11.63
2018-12-21T18:07:05.124Z,9.93
2018-12-21T18:09:33.206Z,11.73
2018-12-21T18:12:01.308Z,11.00
2018-12-21T18:14:29.379Z,13.47
2018-12-21T18:16:57.418Z,12.67
2018-12-21T18:19:25.505Z,11.33
2018-12-21T18:21:53.581Z,11.23
2018-12-21T18:24:21.535Z,18.10
2018-12-21T18:26:49.502Z,33.87
2018-12-21T18:29:17.544Z,28.80
2018-12-21T18:31:47.541Z,24.07
2018-12-21T18:34:18.300Z,36.50
2018-12-21T18:36:46.376Z,21.50
2018-12-21T18:39:14.429Z,34.20
2018-12-21T18:41:42.520Z,19.43
2018-12-21T18:44:10.470Z,19.40
2018-12-21T18:46:38.515Z,18.87
2018-12-21T18:49:06.532Z,17.77
2018-12-21T18:51:34.585Z,17.33
2018-12-21T18:54:04.959Z,15.37
2018-12-21T18:56:35.554Z,14.73
2018-12-21T18:59:04.496Z,12.53
2018-12-21T19:01:32.697Z,11.50
2018-12-21T19:04:02.959Z,13.83
2018-12-21T19:06:31.008Z,10.67
2018-12-21T19:08:58.968Z,7.50
2018-12-21T19:11:26.962Z,6.87
2018-12-21T19:13:55.835Z,5.03
2018-12-21T19:16:23.789Z,4.53
2018-12-21T19:18:51.728Z,4.20
2018-12-21T19:21:19.704Z,3.53
2018-12-21T19:23:47.758Z,3.50
2018-12-21T19:26:15.672Z,3.43
2018-12-21T19:28:45.727Z,3.70
2018-12-21T19:31:13.670Z,3.40
2018-12-21T19:33:41.624Z,2.90
2018-12-21T19:36:14.168Z,3.90
2018-12-21T19:38:42.717Z,4.13
2018-12-21T19:41:12.685Z,3.60
2018-12-21T19:43:43.272Z,4.23
2018-12-21T19:46:13.651Z,4.07
2018-12-21T19:48:48.111Z,3.67
2018-12-21T19:51:18.194Z,3.33
2018-12-21T19:53:46.693Z,3.67
2018-12-21T19:56:16.188Z,3.70
2018-12-21T19:58:44.152Z,4.37
2018-12-21T20:01:12.120Z,3.33
2018-12-21T20:03:40.080Z,3.43
2018-12-21T20:06:08.067Z,3.97
2018-12-21T20:08:36.013Z,4.30
2018-12-21T20:11:04.029Z,4.53
2018-12-21T20:13:32.004Z,3.63
2018-12-21T20:16:00.001Z,3.67
2018-12-21T20:18:27.964Z,3.57
2018-12-21T20:20:55.972Z,4.03
2018-12-21T20:23:23.922Z,3.70
2018-12-21T20:25:51.891Z,3.83
2018-12-21T20:28:19.843Z,4.13
2018-12-21T20:30:47.796Z,4.50
2018-12-21T20:33:15.740Z,3.80
2018-12-21T20:35:43.749Z,3.80
2018-12-21T20:38:11.700Z,4.23
2018-12-21T20:40:39.715Z,4.90
2018-12-21T20:43:07.689Z,4.47
2018-12-21T20:45:35.652Z,4.30
2018-12-21T20:48:04.552Z,3.67
2018-12-21T20:50:32.483Z,4.50
2018-12-21T20:53:00.437Z,3.33
2018-12-21T20:55:28.403Z,3.57
2018-12-21T20:57:56.480Z,4.17
2018-12-21T21:00:24.481Z,3.37
2018-12-21T21:02:52.466Z,3.17
2018-12-21T21:05:20.576Z,2.97
2018-12-21T21:07:48.516Z,2.93
2018-12-21T21:10:16.455Z,2.90
2018-12-21T21:12:44.425Z,3.60
2018-12-21T21:15:12.657Z,3.10
2018-12-21T21:17:40.587Z,3.87
2018-12-21T21:20:11.622Z,3.03
2018-12-21T21:22:39.669Z,3.80
2018-12-21T21:25:07.751Z,3.80
2018-12-21T21:27:35.708Z,4.00
2018-12-21T21:30:05.603Z,4.00
2018-12-21T21:32:33.536Z,3.37
2018-12-21T21:35:01.494Z,3.43
2018-12-21T21:37:29.458Z,3.37
2018-12-21T21:39:57.404Z,2.77
2018-12-21T21:42:25.357Z,3.20
2018-12-21T21:44:53.308Z,3.70
2018-12-21T21:47:21.354Z,3.47
2018-12-21T21:49:49.341Z,3.50
2018-12-21T21:52:17.326Z,3.60
2018-12-21T21:54:45.269Z,3.20
2018-12-21T21:57:13.271Z,3.80
2018-12-21T21:59:41.221Z,4.10
2018-12-21T22:02:09.197Z,4.20
2018-12-21T22:04:37.151Z,4.97
2018-12-21T22:07:05.213Z,6.70
2018-12-21T22:09:33.162Z,7.23
2018-12-21T22:12:01.206Z,9.00
2018-12-21T22:14:29.245Z,9.30
2018-12-21T22:16:57.207Z,11.00
2018-12-21T22:19:25.147Z,7.87
2018-12-21T22:21:53.110Z,8.10
2018-12-21T22:24:21.098Z,9.60
2018-12-21T22:26:49.061Z,8.63
2018-12-21T22:29:17.012Z,9.40
2018-12-21T22:31:44.972Z,8.60
2018-12-21T22:34:12.936Z,9.63
2018-12-21T22:36:40.921Z,10.27
2018-12-21T22:39:08.977Z,10.10
2018-12-21T22:41:36.940Z,10.37
2018-12-21T22:44:04.905Z,10.10
2018-12-21T22:46:32.912Z,9.23
2018-12-21T22:49:00.965Z,7.90
2018-12-21T22:51:28.912Z,9.87
2018-12-21T22:53:57.004Z,8.23
2018-12-21T22:56:25.096Z,10.23
2018-12-21T22:58:53.048Z,10.00
2018-12-21T23:01:21.293Z,8.83
2018-12-21T23:03:49.253Z,8.93
2018-12-21T23:06:17.200Z,8.77
2018-12-21T23:08:45.156Z,7.53
2018-12-21T23:11:13.211Z,7.37
2018-12-21T23:13:41.161Z,8.23
2018-12-21T23:16:09.205Z,7.47
2018-12-21T23:18:37.244Z,7.23
2018-12-21T23:21:05.195Z,6.97
2018-12-21T23:23:33.158Z,6.80
2018-12-21T23:26:01.111Z,6.27
2018-12-21T23:28:29.082Z,5.77
2018-12-21T23:30:57.025Z,4.77
2018-12-21T23:33:25.072Z,4.70
2018-12-21T23:35:53.033Z,3.83
2018-12-21T23:38:20.987Z,3.70
2018-12-21T23:40:48.942Z,4.00
2018-12-21T23:43:16.987Z,3.80
2018-12-21T23:48:27.303Z,3.60
2018-12-21T23:50:55.286Z,3.70
2018-12-21T23:53:23.285Z,3.27
2018-12-21T23:55:51.572Z,2.87
2018-12-21T23:58:19.525Z,2.73
